Time;durP1;ratioP1;P1;durP2;ratioP2;P2;SDS_P1;SDS_P2;PMS_P1;PMS_P2;Temp;Humidity;BMP_temperature;BMP_pressure;BME280_temperature;BME280_humidity;BME280_pressure;Samples;Min_cycle;Max_cycle;Signal;HPM_P1;HPM_P2
2023/03/16 00:02:14;;;;;;;;;;;;;;;0.69;69.25;96710.89;109261;1272;25392;-82
2023/03/16 00:04:46;;;;;;;;;;;;;;;0.68;69.11;96708.66;109236;1269;55084;-82
2023/03/16 00:07:16;;;;;;;;;;;;;;;0.66;69.10;96712.20;109270;1272;24248;-82
2023/03/16 00:09:45;;;;;;;;;;;;;;;0.64;69.59;96712.51;109238;1272;22554;-82
2023/03/16 00:12:16;;;;;;;;;;;;;;;0.61;69.81;96714.83;109298;1272;22494;-83
2023/03/16 00:14:47;;;;;;;;;;;;;;;0.60;69.79;96711.17;109197;1272;44775;-83
2023/03/16 00:17:18;;;;;;;;;;;;;;;0.58;69.88;96715.05;109298;1269;22481;-83
2023/03/16 00:19:53;;;;;;;;;;;;;;;0.57;70.10;96719.40;109249;1272;22617;-84
2023/03/16 00:22:24;;;;;;;;;;;;;;;0.56;70.17;96721.44;109219;1272;22528;-82
2023/03/16 00:24:53;;;;;;;;;;;;;;;0.52;70.25;96718.23;109170;1270;49822;-82
2023/03/16 00:27:24;;;;;;;;;;;;;;;0.51;70.59;96721.41;109247;1272;22495;-82
2023/03/16 00:29:55;;;;;;;;;;;;;;;0.49;70.80;96727.23;109290;1269;22480;-82
2023/03/16 00:32:25;;;;;;;;;;;;;;;0.47;70.93;96732.21;109265;1272;22533;-82
2023/03/16 00:34:55;;;;;;;;;;;;;;;0.46;70.76;96739.85;109221;1272;28207;-83
2023/03/16 00:37:25;;;;;;;;;;;;;;;0.46;71.15;96738.64;109216;1272;24204;-82
2023/03/16 00:39:55;;;;;;;;;;;;;;;0.45;71.00;96738.65;109233;1269;22533;-82
2023/03/16 00:42:26;;;;;;;;;;;;;;;0.44;71.13;96741.08;109284;1267;24251;-82
2023/03/16 00:44:56;;;;;;;;;;;;;;;0.42;71.12;96736.16;109194;1272;28173;-82
2023/03/16 00:47:27;;;;;;;;;;;;;;;0.41;71.22;96740.91;109233;1272;22520;-82
2023/03/16 00:49:57;;;;;;;;;;;;;;;0.40;71.52;96738.98;109265;1272;22482;-82
2023/03/16 00:52:27;;;;;;;;;;;;;;;0.35;71.52;96740.98;109289;1272;22559;-82
2023/03/16 00:54:56;;;;;;;;;;;;;;;0.32;71.39;96744.32;109286;1272;44884;-82
2023/03/16 00:57:26;;;;;;;;;;;;;;;0.28;71.91;96749.58;109254;1272;22795;-82
2023/03/16 00:59:56;;;;;;;;;;;;;;;0.24;71.87;96755.33;109215;1269;22524;-82
2023/03/16 01:02:26;;;;;;;;;;;;;;;0.22;72.18;96748.89;109246;1272;22519;-82
2023/03/16 01:05:00;;;;;;;;;;;;;;;0.20;72.03;96755.00;109182;1272;37589;-82
2023/03/16 01:07:31;;;;;;;;;;;;;;;0.19;72.47;96756.92;109252;1272;22535;-82
2023/03/16 01:10:00;;;;;;;;;;;;;;;0.17;72.37;96763.88;109257;1272;22494;-83
2023/03/16 01:12:30;;;;;;;;;;;;;;;0.16;72.44;96764.13;109283;1272;25903;-83
2023/03/16 01:15:00;;;;;;;;;;;;;;;0.14;72.70;96764.54;109173;1272;46646;-83
2023/03/16 01:17:33;;;;;;;;;;;;;;;0.10;72.95;96767.02;109250;1270;22724;-82
2023/03/16 01:20:06;;;;;;;;;;;;;;;0.07;73.42;96765.21;109277;1272;22556;-83
2023/03/16 01:22:36;;;;;;;;;;;;;;;0.03;73.51;96768.41;109289;1272;22500;-83
2023/03/16 01:25:06;;;;;;;;;;;;;;;-0.02;73.40;96777.11;107834;1272;1902456;-83
2023/03/16 01:27:36;;;;;;;;;;;;;;;-0.06;73.96;96780.66;109168;1270;22490;-83
2023/03/16 01:30:06;;;;;;;;;;;;;;;-0.09;73.49;96779.52;109263;1269;22461;-83
2023/03/16 01:32:36;;;;;;;;;;;;;;;-0.12;73.71;96781.29;109269;1272;22524;-83
2023/03/16 01:35:06;;;;;;;;;;;;;;;-0.15;74.05;96784.19;109215;1263;63932;-83
2023/03/16 01:37:35;;;;;;;;;;;;;;;-0.17;73.98;96783.85;109240;1272;22581;-82
2023/03/16 01:40:07;;;;;;;;;;;;;;;-0.19;74.81;96786.39;109295;1272;22530;-82
2023/03/16 01:42:44;;;;;;;;;;;;;;;-0.21;74.62;96781.08;109314;1265;23448;-82
2023/03/16 01:45:31;;;;;;;;;;;;;;;-0.20;75.46;96779.98;109092;1267;44890;-82
2023/03/16 01:48:01;;;;;;;;;;;;;;;-0.21;75.38;96780.31;109186;1272;25261;-82
2023/03/16 01:50:30;;;;;;;;;;;;;;;-0.23;75.62;96783.45;109195;1272;22498;-82
2023/03/16 01:53:01;;;;;;;;;;;;;;;-0.23;76.10;96781.73;109318;1272;22438;-82
2023/03/16 01:55:31;;;;;;;;;;;;;;;-0.22;75.91;96783.20;109204;1269;32289;-82
2023/03/16 01:58:01;;;;;;;;;;;;;;;-0.22;76.05;96785.77;109326;1267;25341;-82
2023/03/16 02:00:32;;;;;;;;;;;;;;;-0.22;76.10;96789.25;109315;1269;24209;-82
2023/03/16 02:03:05;;;;;;;;;;;;;;;-0.22;76.17;96791.73;109282;1267;22530;-82
2023/03/16 02:05:39;;;;;;;;;;;;;;;-0.22;76.48;96789.45;109312;1257;56803;-83
2023/03/16 02:08:11;;;;;;;;;;;;;;;-0.23;76.73;96795.92;109321;1272;24160;-82
2023/03/16 02:10:41;;;;;;;;;;;;;;;-0.25;76.78;96799.25;109295;1272;22555;-83
2023/03/16 02:13:10;;;;;;;;;;;;;;;-0.25;77.07;96797.38;109317;1272;22494;-82
2023/03/16 02:15:40;;;;;;;;;;;;;;;-0.27;77.19;96801.98;109229;1272;27442;-82
2023/03/16 02:18:09;;;;;;;;;;;;;;;-0.29;77.13;96802.85;109310;1272;22536;-82
2023/03/16 02:20:42;;;;;;;;;;;;;;;-0.31;77.25;96799.65;109137;1267;22626;-82
2023/03/16 02:23:17;;;;;;;;;;;;;;;-0.33;77.29;96806.64;109265;1272;23664;-82
2023/03/16 02:25:51;;;;;;;;;;;;;;;-0.35;77.21;96809.89;109234;1269;28870;-83
2023/03/16 02:28:25;;;;;;;;;;;;;;;-0.36;77.29;96815.75;109137;1267;24424;-83
2023/03/16 02:30:55;;;;;;;;;;;;;;;-0.38;77.32;96821.84;109271;1272;22609;-83
2023/03/16 02:33:25;;;;;;;;;;;;;;;-0.42;77.33;96825.81;109291;1272;22529;-83
2023/03/16 02:35:57;;;;;;;;;;;;;;;-0.45;77.54;96824.77;109320;1267;30150;-83
2023/03/16 02:38:26;;;;;;;;;;;;;;;-0.48;77.73;96825.98;109344;1267;22516;-82
2023/03/16 02:40:59;;;;;;;;;;;;;;;-0.51;77.87;96828.75;109309;1272;22795;-83
2023/03/16 02:43:33;;;;;;;;;;;;;;;-0.52;78.13;96829.80;109237;1272;22542;-82
2023/03/16 02:46:11;;;;;;;;;;;;;;;-0.53;78.45;96828.20;109190;1272;52306;-82
2023/03/16 02:48:44;;;;;;;;;;;;;;;-0.56;78.39;96834.28;109271;1272;22523;-82
2023/03/16 02:51:13;;;;;;;;;;;;;;;-0.61;78.91;96833.68;109295;1272;24241;-82
2023/03/16 02:53:43;;;;;;;;;;;;;;;-0.65;78.81;96834.05;109314;1272;22493;-82
2023/03/16 02:56:13;;;;;;;;;;;;;;;-0.69;79.04;96833.34;109251;1269;51494;-82
2023/03/16 02:58:42;;;;;;;;;;;;;;;-0.73;79.04;96840.09;109170;1271;22496;-82
2023/03/16 03:01:12;;;;;;;;;;;;;;;-0.75;79.43;96842.51;109228;1272;22492;-82
2023/03/16 03:03:42;;;;;;;;;;;;;;;-0.77;79.55;96844.87;109346;1272;22453;-83
2023/03/16 03:06:12;;;;;;;;;;;;;;;-0.79;79.76;96847.67;109257;1268;34328;-82
2023/03/16 03:08:42;;;;;;;;;;;;;;;-0.84;79.93;96846.41;109169;1267;202047;-83
2023/03/16 03:11:11;;;;;;;;;;;;;;;-0.87;80.11;96849.54;109152;1273;23247;-83
2023/03/16 03:13:43;;;;;;;;;;;;;;;-0.88;80.38;96853.55;109135;1272;22534;-83
2023/03/16 03:16:13;;;;;;;;;;;;;;;-0.90;80.50;96856.08;109217;1272;94501;-83
2023/03/16 03:18:42;;;;;;;;;;;;;;;-0.93;80.50;96858.68;109302;1267;22518;-83
2023/03/16 03:21:13;;;;;;;;;;;;;;;-0.95;80.37;96862.08;109270;1271;22495;-83
2023/03/16 03:23:45;;;;;;;;;;;;;;;-0.96;80.64;96865.17;109313;1267;22513;-83
2023/03/16 03:26:14;;;;;;;;;;;;;;;-0.96;80.66;96867.30;109278;1266;41013;-83
2023/03/16 03:28:44;;;;;;;;;;;;;;;-0.98;80.55;96869.61;109279;1272;22483;-83
2023/03/16 03:31:19;;;;;;;;;;;;;;;-0.99;80.93;96869.88;109166;1273;22491;-83
2023/03/16 03:33:48;;;;;;;;;;;;;;;-1.00;80.53;96877.12;109275;1272;22566;-83
2023/03/16 03:36:18;;;;;;;;;;;;;;;-1.00;80.88;96880.63;109288;1270;49902;-83
2023/03/16 03:38:48;;;;;;;;;;;;;;;-1.00;80.86;96887.57;109317;1272;24227;-83
2023/03/16 03:41:18;;;;;;;;;;;;;;;-1.02;80.46;96891.40;109334;1272;25278;-83
2023/03/16 03:43:47;;;;;;;;;;;;;;;-1.03;80.77;96893.16;109316;1272;22529;-83
2023/03/16 03:46:17;;;;;;;;;;;;;;;-1.04;80.64;96895.37;109271;1266;40787;-83
2023/03/16 03:48:46;;;;;;;;;;;;;;;-1.07;81.10;96894.05;109305;1269;22437;-83
2023/03/16 03:51:15;;;;;;;;;;;;;;;-1.07;80.64;96894.09;109320;1267;22492;-83
2023/03/16 03:53:45;;;;;;;;;;;;;;;-1.08;80.97;96897.69;109307;1272;22563;-83
2023/03/16 03:56:14;;;;;;;;;;;;;;;-1.10;80.94;96895.98;109249;1272;64060;-83
2023/03/16 03:58:44;;;;;;;;;;;;;;;-1.07;80.96;96902.77;109319;1272;22506;-83
2023/03/16 04:01:13;;;;;;;;;;;;;;;-1.06;80.81;96903.30;109319;1272;22548;-84
2023/03/16 04:03:43;;;;;;;;;;;;;;;-1.08;81.31;96901.66;109300;1267;23661;-84
2023/03/16 04:06:15;;;;;;;;;;;;;;;-1.10;81.42;96901.81;109258;1272;27151;-84
2023/03/16 04:08:45;;;;;;;;;;;;;;;-1.11;81.31;96903.54;109357;1266;22499;-84
2023/03/16 04:11:15;;;;;;;;;;;;;;;-1.11;80.96;96904.26;109324;1272;22587;-84
2023/03/16 04:13:44;;;;;;;;;;;;;;;-1.11;81.43;96902.96;109295;1266;22621;-84
2023/03/16 04:16:14;;;;;;;;;;;;;;;-1.14;81.24;96904.50;109264;1272;34095;-83
2023/03/16 04:18:45;;;;;;;;;;;;;;;-1.14;81.54;96908.83;109347;1265;22528;-84
2023/03/16 04:21:16;;;;;;;;;;;;;;;-1.18;81.77;96911.46;109320;1272;22533;-83
2023/03/16 04:23:45;;;;;;;;;;;;;;;-1.21;81.70;96919.23;109324;1266;22492;-83
2023/03/16 04:26:15;;;;;;;;;;;;;;;-1.21;81.90;96921.15;109264;1272;72261;-83
2023/03/16 04:28:45;;;;;;;;;;;;;;;-1.19;81.94;96919.83;109343;1269;22534;-83
2023/03/16 04:31:16;;;;;;;;;;;;;;;-1.16;82.13;96921.43;109324;1260;22551;-84
2023/03/16 04:33:46;;;;;;;;;;;;;;;-1.15;81.97;96924.60;109302;1272;23555;-83
2023/03/16 04:36:16;;;;;;;;;;;;;;;-1.15;81.87;96926.84;109148;1272;37000;-83
2023/03/16 04:38:45;;;;;;;;;;;;;;;-1.14;82.15;96930.52;109306;1272;24219;-83
2023/03/16 04:41:15;;;;;;;;;;;;;;;-1.12;82.28;96935.08;109323;1266;22492;-83
2023/03/16 04:43:44;;;;;;;;;;;;;;;-1.09;82.03;96933.35;109281;1269;22583;-84
2023/03/16 04:46:14;;;;;;;;;;;;;;;-1.07;82.07;96937.08;109215;1267;53710;-84
2023/03/16 04:48:44;;;;;;;;;;;;;;;-1.07;81.79;96935.48;109310;1266;22512;-84
2023/03/16 04:51:13;;;;;;;;;;;;;;;-1.07;82.00;96933.04;109162;1272;22566;-84
2023/03/16 04:53:43;;;;;;;;;;;;;;;-1.04;81.73;96931.27;109296;1267;22500;-84
2023/03/16 04:56:18;;;;;;;;;;;;;;;-1.03;81.87;96933.77;109263;1272;52483;-83
2023/03/16 04:58:48;;;;;;;;;;;;;;;-1.03;81.91;96937.67;109330;1269;22589;-84
2023/03/16 05:01:18;;;;;;;;;;;;;;;-1.03;81.93;96940.73;109339;1265;25237;-83
2023/03/16 05:03:48;;;;;;;;;;;;;;;-1.05;81.73;96941.96;109303;1272;22531;-83
2023/03/16 05:06:19;;;;;;;;;;;;;;;-1.06;81.92;96943.85;109311;1272;32782;-84
2023/03/16 05:08:49;;;;;;;;;;;;;;;-1.06;81.94;96944.00;109296;1266;22515;-84
2023/03/16 05:11:19;;;;;;;;;;;;;;;-1.05;81.94;96946.96;109326;1266;22522;-84
2023/03/16 05:13:48;;;;;;;;;;;;;;;-1.04;81.79;96946.92;109317;1267;22615;-84
2023/03/16 05:16:18;;;;;;;;;;;;;;;-1.02;81.96;96952.02;109264;1268;45741;-84
2023/03/16 05:18:48;;;;;;;;;;;;;;;-1.01;81.91;96946.73;109334;1272;25379;-83
2023/03/16 05:21:18;;;;;;;;;;;;;;;-1.01;81.92;96951.65;109301;1272;22501;-83
2023/03/16 05:23:50;;;;;;;;;;;;;;;-0.96;81.68;96950.67;109325;1272;22461;-84
2023/03/16 05:26:20;;;;;;;;;;;;;;;-0.89;81.88;96956.09;109296;1266;67536;-84
2023/03/16 05:28:50;;;;;;;;;;;;;;;-0.85;81.89;96953.70;109343;1264;22841;-83
2023/03/16 05:31:22;;;;;;;;;;;;;;;-0.84;81.54;96953.55;109288;1272;22600;-83
2023/03/16 05:33:52;;;;;;;;;;;;;;;-0.83;81.23;96956.39;109336;1272;22517;-83
2023/03/16 05:36:23;;;;;;;;;;;;;;;-0.84;81.48;96957.67;109297;1272;52559;-83
2023/03/16 05:38:53;;;;;;;;;;;;;;;-0.83;81.26;96959.32;109206;1272;23881;-84
2023/03/16 05:41:23;;;;;;;;;;;;;;;-0.83;81.22;96963.80;109234;1262;22539;-83
2023/03/16 05:43:53;;;;;;;;;;;;;;;-0.82;81.14;96964.23;109277;1272;22619;-84
2023/03/16 05:46:23;;;;;;;;;;;;;;;-0.61;81.12;96969.59;109284;1269;47746;-83
2023/03/16 05:48:52;;;;;;;;;;;;;;;-0.21;80.91;96968.73;109257;1272;24407;-84
2023/03/16 05:51:25;;;;;;;;;;;;;;;0.53;79.81;96972.45;109271;1272;22529;-83
2023/03/16 05:53:56;;;;;;;;;;;;;;;1.30;78.65;96973.28;109257;1265;23309;-83
2023/03/16 05:56:26;;;;;;;;;;;;;;;2.01;76.52;96972.59;109238;1271;74013;-83
2023/03/16 05:58:56;;;;;;;;;;;;;;;2.61;74.44;96973.16;109321;1266;22452;-83
2023/03/16 06:01:26;;;;;;;;;;;;;;;2.90;71.97;96974.72;109322;1267;22589;-84
2023/03/16 06:03:56;;;;;;;;;;;;;;;3.16;71.44;96980.96;109243;1272;22430;-83
2023/03/16 06:06:25;;;;;;;;;;;;;;;3.13;69.61;96979.11;109247;1272;29371;-83
2023/03/16 06:08:55;;;;;;;;;;;;;;;2.42;69.13;96983.96;109330;1269;22443;-82
2023/03/16 06:11:25;;;;;;;;;;;;;;;1.74;69.25;96994.12;109338;1272;22900;-82
2023/03/16 06:13:56;;;;;;;;;;;;;;;1.34;70.31;96997.29;109322;1272;22697;-82
2023/03/16 06:16:26;;;;;;;;;;;;;;;1.19;70.92;96999.30;109277;1272;47441;-82
2023/03/16 06:18:56;;;;;;;;;;;;;;;1.10;70.87;97001.63;109295;1272;24635;-82
2023/03/16 06:21:25;;;;;;;;;;;;;;;1.00;71.08;97004.33;109332;1272;22583;-82
2023/03/16 06:23:55;;;;;;;;;;;;;;;0.89;71.18;97007.07;109310;1266;24248;-83
2023/03/16 06:26:25;;;;;;;;;;;;;;;0.90;71.46;97011.12;109151;1265;118757;-83
2023/03/16 06:28:55;;;;;;;;;;;;;;;0.96;71.56;97011.68;109246;1272;23905;-84
2023/03/16 06:31:25;;;;;;;;;;;;;;;1.00;71.54;97013.92;109336;1272;22526;-83
2023/03/16 06:33:55;;;;;;;;;;;;;;;0.99;71.30;97016.50;109365;1266;22511;-83
2023/03/16 06:36:24;;;;;;;;;;;;;;;0.95;71.18;97018.31;109247;1272;41835;-83
2023/03/16 06:38:54;;;;;;;;;;;;;;;1.01;71.36;97025.08;109334;1272;22742;-83
2023/03/16 06:41:23;;;;;;;;;;;;;;;1.23;71.53;97028.00;109330;1272;22523;-84
2023/03/16 06:43:53;;;;;;;;;;;;;;;1.88;70.92;97025.34;109165;1272;22517;-82
2023/03/16 06:46:22;;;;;;;;;;;;;;;2.16;69.58;97029.48;109187;1272;56854;-83
2023/03/16 06:48:52;;;;;;;;;;;;;;;2.09;69.17;97027.27;109184;1272;22509;-84
2023/03/16 06:51:22;;;;;;;;;;;;;;;2.07;68.82;97032.19;109329;1272;22578;-84
2023/03/16 06:53:51;;;;;;;;;;;;;;;2.13;68.99;97035.05;109181;1265;23638;-83
2023/03/16 06:56:21;;;;;;;;;;;;;;;2.16;68.77;97036.56;109286;1272;57013;-83
2023/03/16 06:58:50;;;;;;;;;;;;;;;2.20;68.50;97040.07;109295;1272;22766;-83
2023/03/16 07:01:21;;;;;;;;;;;;;;;2.06;67.97;97047.54;109364;1272;23238;-83
2023/03/16 07:03:51;;;;;;;;;;;;;;;1.97;68.13;97046.15;109322;1272;23986;-84
2023/03/16 07:06:39;;;;;;;;;;;;;;;2.06;68.12;97050.88;109286;1272;51627;-84
2023/03/16 07:09:08;;;;;;;;;;;;;;;2.45;68.23;97045.19;109371;1272;22436;-84
2023/03/16 07:11:38;;;;;;;;;;;;;;;3.65;67.08;97042.52;109311;1272;22466;-84
2023/03/16 07:14:07;;;;;;;;;;;;;;;4.73;65.90;97047.83;109321;1272;22691;-84
2023/03/16 07:16:37;;;;;;;;;;;;;;;6.09;63.17;97048.82;109282;1272;32693;-84
2023/03/16 07:19:07;;;;;;;;;;;;;;;7.07;60.44;97046.16;109358;1272;22545;-84
2023/03/16 07:21:40;;;;;;;;;;;;;;;7.75;58.41;97050.30;109328;1266;22488;-83
2023/03/16 07:24:11;;;;;;;;;;;;;;;8.49;57.53;97046.73;109312;1272;25382;-83
2023/03/16 07:26:41;;;;;;;;;;;;;;;9.09;54.87;97051.25;109214;1268;119289;-82
2023/03/16 07:29:11;;;;;;;;;;;;;;;9.43;53.63;97054.26;109306;1265;22942;-83
2023/03/16 07:31:42;;;;;;;;;;;;;;;9.77;52.32;97053.88;109310;1266;22669;-83
2023/03/16 07:34:11;;;;;;;;;;;;;;;9.48;50.76;97053.96;109323;1270;22609;-83
2023/03/16 07:36:42;;;;;;;;;;;;;;;9.71;51.06;97060.42;109267;1266;33492;-80
2023/03/16 07:39:13;;;;;;;;;;;;;;;10.31;49.83;97061.28;109297;1264;22530;-80
2023/03/16 07:41:44;;;;;;;;;;;;;;;10.83;49.20;97066.91;109310;1272;23799;-80
2023/03/16 07:44:14;;;;;;;;;;;;;;;11.21;49.71;97070.32;109266;1265;22494;-80
2023/03/16 07:46:43;;;;;;;;;;;;;;;12.39;50.13;97068.04;109288;1272;36753;-80
2023/03/16 07:49:13;;;;;;;;;;;;;;;13.29;47.44;97065.51;109329;1272;22950;-80
2023/03/16 07:51:45;;;;;;;;;;;;;;;13.17;45.59;97068.02;109212;1272;22530;-80
2023/03/16 07:54:15;;;;;;;;;;;;;;;12.81;44.49;97064.49;109298;1268;22492;-80
2023/03/16 07:56:45;;;;;;;;;;;;;;;12.99;45.19;97062.41;109245;1272;132345;-80
2023/03/16 07:59:14;;;;;;;;;;;;;;;13.85;45.99;97063.35;109380;1265;24259;-81
2023/03/16 08:01:47;;;;;;;;;;;;;;;15.41;46.30;97058.29;109339;1272;22503;-80
2023/03/16 08:04:17;;;;;;;;;;;;;;;15.24;39.09;97057.39;109132;1272;22913;-80
2023/03/16 08:06:47;;;;;;;;;;;;;;;12.70;39.65;97061.80;109258;1272;44039;-80
2023/03/16 08:09:16;;;;;;;;;;;;;;;10.36;41.65;97070.02;109225;1264;24447;-79
2023/03/16 08:11:46;;;;;;;;;;;;;;;8.48;43.42;97067.36;109310;1272;22605;-79
2023/03/16 08:14:17;;;;;;;;;;;;;;;7.14;44.64;97076.31;109173;1265;22492;-79
2023/03/16 08:16:46;;;;;;;;;;;;;;;5.62;46.45;97081.92;109257;1272;57556;-79
2023/03/16 08:19:19;;;;;;;;;;;;;;;4.99;48.54;97085.51;109205;1272;22490;-79
2023/03/16 08:21:48;;;;;;;;;;;;;;;4.69;49.07;97081.01;109341;1272;22618;-79
2023/03/16 08:24:18;;;;;;;;;;;;;;;4.23;50.13;97085.48;109262;1272;22609;-79
2023/03/16 08:26:48;;;;;;;;;;;;;;;4.01;50.68;97088.39;107900;1272;1880199;-79
2023/03/16 08:29:18;;;;;;;;;;;;;;;5.21;51.37;97088.94;109295;1269;22499;-79
2023/03/16 08:31:48;;;;;;;;;;;;;;;5.14;49.65;97090.59;109329;1272;24938;-79
2023/03/16 08:34:17;;;;;;;;;;;;;;;4.85;50.49;97089.62;109268;1262;22648;-79
2023/03/16 08:36:47;;;;;;;;;;;;;;;5.31;51.95;97097.70;109224;1268;76505;-79
2023/03/16 08:39:16;;;;;;;;;;;;;;;8.23;52.73;97086.05;109278;1265;22497;-79
2023/03/16 08:41:47;;;;;;;;;;;;;;;10.86;49.51;97086.40;109275;1268;22610;-79
2023/03/16 08:44:16;;;;;;;;;;;;;;;10.28;44.58;97090.59;109195;1272;22486;-79
2023/03/16 08:46:46;;;;;;;;;;;;;;;9.39;44.79;97093.89;109221;1272;47451;-79
2023/03/16 08:49:16;;;;;;;;;;;;;;;10.02;44.65;97096.20;109254;1272;22771;-79
2023/03/16 08:51:45;;;;;;;;;;;;;;;9.91;44.76;97092.56;109170;1265;25399;-78
2023/03/16 08:54:16;;;;;;;;;;;;;;;8.10;43.41;97095.13;109267;1272;22552;-78
2023/03/16 08:56:45;;;;;;;;;;;;;;;6.58;45.67;97104.79;109256;1272;49405;-78
2023/03/16 08:59:15;;;;;;;;;;;;;;;5.78;46.29;97107.23;109293;1272;22616;-78
2023/03/16 09:01:45;;;;;;;;;;;;;;;5.05;47.32;97109.34;109310;1266;22481;-79
2023/03/16 09:04:15;;;;;;;;;;;;;;;4.56;48.13;97110.52;109323;1268;22524;-79
2023/03/16 09:06:44;;;;;;;;;;;;;;;4.27;49.02;97110.53;109280;1268;43741;-79
2023/03/16 09:09:14;;;;;;;;;;;;;;;5.21;51.44;97112.11;109262;1269;24221;-79
2023/03/16 09:11:44;;;;;;;;;;;;;;;6.64;51.46;97108.84;109292;1272;22531;-79
2023/03/16 09:14:14;;;;;;;;;;;;;;;7.35;48.84;97104.77;109289;1265;22442;-78
2023/03/16 09:16:45;;;;;;;;;;;;;;;7.11;46.36;97094.76;109232;1272;95509;-78
2023/03/16 09:19:14;;;;;;;;;;;;;;;6.10;47.14;97108.02;109159;1265;22510;-77
2023/03/16 09:21:45;;;;;;;;;;;;;;;5.62;47.78;97116.02;109294;1269;22517;-78
2023/03/16 09:24:15;;;;;;;;;;;;;;;5.49;48.23;97119.61;109258;1270;22539;-79
2023/03/16 09:26:45;;;;;;;;;;;;;;;5.48;48.53;97113.38;109233;1272;37574;-79
2023/03/16 09:29:14;;;;;;;;;;;;;;;5.39;48.82;97116.67;109279;1272;22491;-79
2023/03/16 09:31:44;;;;;;;;;;;;;;;5.28;49.01;97119.98;109271;1272;22533;-79
2023/03/16 09:34:14;;;;;;;;;;;;;;;5.23;48.74;97120.86;109245;1272;22488;-78
2023/03/16 09:36:44;;;;;;;;;;;;;;;4.99;47.95;97124.18;109216;1272;53037;-79
2023/03/16 09:39:14;;;;;;;;;;;;;;;4.40;48.49;97122.96;109299;1272;22510;-78
2023/03/16 09:41:47;;;;;;;;;;;;;;;3.94;49.29;97127.67;109263;1266;22587;-78
2023/03/16 09:44:28;;;;;;;;;;;;;;;3.68;49.60;97129.08;109259;1265;22486;-78
2023/03/16 09:46:59;;;;;;;;;;;;;;;3.58;50.43;97124.88;109194;1265;145114;-78
2023/03/16 09:49:33;;;;;;;;;;;;;;;3.50;51.33;97128.96;109179;1272;25401;-78
2023/03/16 09:52:11;;;;;;;;;;;;;;;3.51;50.72;97123.15;109261;1272;22930;-78
2023/03/16 09:54:46;;;;;;;;;;;;;;;3.62;50.78;97125.80;109260;1272;22931;-78
2023/03/16 09:57:19;;;;;;;;;;;;;;;3.92;50.15;97128.19;109303;1272;22488;-78
2023/03/16 09:59:51;;;;;;;;;;;;;;;3.85;50.30;97129.95;109287;1272;22516;-78
2023/03/16 10:02:32;;;;;;;;;;;;;;;3.85;51.09;97131.16;109279;1272;22494;-78
2023/03/16 10:05:05;;;;;;;;;;;;;;;3.67;51.55;97139.26;109191;1265;57452;-78
2023/03/16 10:07:42;;;;;;;;;;;;;;;3.53;51.94;97142.61;109170;1272;22610;-78
2023/03/16 10:10:20;;;;;;;;;;;;;;;3.40;52.53;97146.80;109218;1272;22502;-78
2023/03/16 10:12:52;;;;;;;;;;;;;;;3.41;52.88;97149.57;109186;1271;23900;-78
2023/03/16 10:15:25;;;;;;;;;;;;;;;3.40;52.30;97146.07;109181;1271;62128;-79
2023/03/16 10:17:58;;;;;;;;;;;;;;;3.30;51.23;97150.49;109193;1266;22524;-78
2023/03/16 10:20:31;;;;;;;;;;;;;;;3.29;51.74;97151.63;109204;1265;22500;-78
2023/03/16 10:23:08;;;;;;;;;;;;;;;3.56;51.14;97146.56;109273;1272;22554;-77
2023/03/16 10:25:41;;;;;;;;;;;;;;;4.02;50.18;97136.20;109203;1269;35571;-77
2023/03/16 10:28:13;;;;;;;;;;;;;;;4.38;48.89;97130.13;109208;1272;22504;-79
2023/03/16 10:30:43;;;;;;;;;;;;;;;4.82;49.83;97129.99;109270;1264;22439;-79
2023/03/16 10:33:18;;;;;;;;;;;;;;;5.29;49.72;97129.66;109259;1272;23761;-79
2023/03/16 10:35:51;;;;;;;;;;;;;;;5.54;49.11;97131.21;109257;1264;41324;-78
2023/03/16 10:38:37;;;;;;;;;;;;;;;5.46;47.97;97132.54;109277;1266;22446;-78
2023/03/16 10:41:19;;;;;;;;;;;;;;;4.96;47.16;97131.61;109268;1269;22500;-79
2023/03/16 10:43:50;;;;;;;;;;;;;;;4.94;48.10;97138.01;109201;1268;22515;-78
2023/03/16 10:46:20;;;;;;;;;;;;;;;4.90;48.08;97141.00;109205;1272;55413;-79
2023/03/16 10:48:58;;;;;;;;;;;;;;;4.80;48.29;97141.46;109255;1272;22439;-78
2023/03/16 10:51:29;;;;;;;;;;;;;;;4.63;47.86;97142.08;109258;1272;22510;-79
2023/03/16 10:54:04;;;;;;;;;;;;;;;4.24;46.92;97142.87;109308;1272;22446;-78
2023/03/16 10:56:35;;;;;;;;;;;;;;;4.22;48.17;97149.85;109250;1269;71312;-78
2023/03/16 10:59:16;;;;;;;;;;;;;;;4.82;49.29;97145.14;109177;1264;22510;-78
2023/03/16 11:01:48;;;;;;;;;;;;;;;5.57;49.41;97136.48;109284;1272;22496;-78
2023/03/16 11:04:19;;;;;;;;;;;;;;;6.02;47.88;97134.63;109271;1265;25313;-78
2023/03/16 11:06:53;;;;;;;;;;;;;;;6.11;47.61;97135.38;109230;1272;36356;-78
2023/03/16 11:09:26;;;;;;;;;;;;;;;5.89;46.90;97142.52;109265;1272;22497;-78
2023/03/16 11:11:56;;;;;;;;;;;;;;;5.54;46.13;97144.56;109248;1265;22526;-78
2023/03/16 11:14:28;;;;;;;;;;;;;;;5.55;46.97;97140.08;109246;1272;22603;-78
2023/03/16 11:17:04;;;;;;;;;;;;;;;5.66;47.12;97134.20;109253;1266;29051;-78
2023/03/16 11:19:36;;;;;;;;;;;;;;;6.14;47.79;97130.64;109304;1268;22603;-77
2023/03/16 11:22:08;;;;;;;;;;;;;;;6.52;47.39;97130.10;109261;1272;25389;-77
2023/03/16 11:24:45;;;;;;;;;;;;;;;6.82;47.88;97132.73;109286;1266;25409;-77
2023/03/16 11:27:20;;;;;;;;;;;;;;;7.18;47.33;97129.87;109264;1272;23382;-77
2023/03/16 11:29:58;;;;;;;;;;;;;;;6.91;44.11;97123.33;109232;1272;23297;-77
2023/03/16 11:32:29;;;;;;;;;;;;;;;6.20;44.63;97128.27;109252;1272;22712;-77
2023/03/16 11:34:59;;;;;;;;;;;;;;;5.62;44.65;97135.10;109222;1271;55085;-78
2023/03/16 11:37:43;;;;;;;;;;;;;;;5.20;45.34;97129.88;109246;1266;22801;-78
2023/03/16 11:40:20;;;;;;;;;;;;;;;4.84;45.86;97127.09;109206;1272;25427;-78
2023/03/16 11:42:55;;;;;;;;;;;;;;;4.67;46.38;97126.30;109274;1272;22502;-78
2023/03/16 11:45:27;;;;;;;;;;;;;;;4.72;46.70;97129.20;109143;1272;42473;-78
2023/03/16 11:48:04;;;;;;;;;;;;;;;4.82;46.73;97121.23;109236;1272;22512;-78
2023/03/16 11:50:37;;;;;;;;;;;;;;;4.75;46.70;97122.06;109246;1272;22472;-78
2023/03/16 11:53:13;;;;;;;;;;;;;;;4.89;46.70;97117.06;109233;1272;22504;-78
2023/03/16 11:55:47;;;;;;;;;;;;;;;4.97;47.00;97124.30;109204;1272;36348;-78
2023/03/16 11:58:28;;;;;;;;;;;;;;;5.20;47.27;97128.59;109249;1265;22636;-78
2023/03/16 12:01:01;;;;;;;;;;;;;;;5.17;46.17;97126.45;109294;1272;22495;-78
2023/03/16 12:03:42;;;;;;;;;;;;;;;4.98;47.00;97133.20;109266;1265;22577;-79
2023/03/16 12:06:21;;;;;;;;;;;;;;;4.98;46.95;97136.88;109193;1262;38165;-79
2023/03/16 12:09:13;;;;;;;;;;;;;;;5.00;47.25;97133.56;109207;1272;24205;-79
2023/03/16 12:11:49;;;;;;;;;;;;;;;4.99;47.35;97131.27;109219;1272;24317;-78
2023/03/16 12:14:23;;;;;;;;;;;;;;;4.75;46.78;97129.27;109236;1272;22530;-79
2023/03/16 12:16:56;;;;;;;;;;;;;;;4.61;47.49;97124.52;109255;1272;42617;-78
2023/03/16 12:19:31;;;;;;;;;;;;;;;4.51;47.45;97129.02;109259;1272;22529;-78
2023/03/16 12:22:06;;;;;;;;;;;;;;;4.58;47.74;97123.84;109262;1272;22439;-78
2023/03/16 12:24:39;;;;;;;;;;;;;;;5.07;48.12;97124.67;109241;1272;22492;-78
2023/03/16 12:27:13;;;;;;;;;;;;;;;5.48;47.70;97126.48;109242;1272;31562;-78
2023/03/16 12:29:48;;;;;;;;;;;;;;;5.80;46.85;97122.77;109244;1266;25502;-78
2023/03/16 12:32:21;;;;;;;;;;;;;;;5.87;46.16;97124.54;109241;1265;22991;-78
2023/03/16 12:34:55;;;;;;;;;;;;;;;5.50;45.02;97115.52;109239;1271;36935;-78
2023/03/16 12:37:29;;;;;;;;;;;;;;;4.93;45.37;97117.33;109238;1272;22519;-79
2023/03/16 12:40:08;;;;;;;;;;;;;;;4.76;46.48;97134.45;109229;1272;22537;-79
2023/03/16 12:42:48;;;;;;;;;;;;;;;4.75;47.23;97137.78;109145;1272;22506;-79
2023/03/16 12:45:23;;;;;;;;;;;;;;;4.75;47.22;97137.48;109104;1269;46025;-79
2023/03/16 12:47:58;;;;;;;;;;;;;;;4.56;47.63;97143.63;109234;1272;25395;-79
2023/03/16 12:50:28;;;;;;;;;;;;;;;4.43;48.06;97145.94;109269;1272;24219;-79
2023/03/16 12:52:58;;;;;;;;;;;;;;;4.44;48.32;97145.55;109240;1272;22501;-79
2023/03/16 12:55:39;;;;;;;;;;;;;;;4.54;48.35;97141.33;109206;1269;23216;-78
2023/03/16 12:58:11;;;;;;;;;;;;;;;4.80;48.48;97142.92;109252;1272;25208;-79
2023/03/16 13:00:41;;;;;;;;;;;;;;;5.16;48.45;97137.32;109237;1272;22523;-79
2023/03/16 13:03:14;;;;;;;;;;;;;;;5.50;47.72;97129.92;109217;1262;22481;-78
2023/03/16 13:05:49;;;;;;;;;;;;;;;5.61;47.00;97132.72;109175;1272;43046;-79